Flight Track Log - Related Links

Times and Time Zones

All times are in EDT time to prevent confusion due to time zone crossing. See the HBH3277 flight status page for this flight to view local times or setup timezone preferences in your user account.

Time Position Orientation Groundspeed Altitude Reporting Facility
EDT Latitude Longitude Course Direction KTS MPH feet Rate Location/Type
02:31AM 37.7548 115.1704 144° Southeast  Level Estimated
02:32AM 37.6795 115.2376 145° Southeast  Level Estimated
02:33AM 37.6042 115.3046 145° Southeast  Level Estimated
02:34AM 37.5288 115.3714 145° Southeast  Level Estimated
02:35AM 37.4534 115.4381 145° Southeast  Level Estimated
02:36AM 37.3780 115.5047 145° Southeast  Level Estimated
02:37AM 37.3025 115.5712 145° Southeast  Level Estimated
02:38AM 37.2270 115.6375 145° Southeast  Level Estimated
02:39AM 37.1514 115.7037 145° Southeast  Level Estimated
02:40AM 37.0758 115.7698 145° Southeast  Level Estimated
02:41AM 37.0002 115.8357 145° Southeast  Level Estimated
02:42AM 36.9245 115.9015 145° Southeast  Level Estimated
02:43AM 36.8489 115.9672 145° Southeast  Level Estimated
02:44AM 36.7731 116.0327 145° Southeast  Level Estimated
02:45AM 36.6973 116.0981 145° Southeast  Level Estimated
02:46AM 36.6215 116.1634 145° Southeast  Level Estimated
02:47AM 36.5457 116.2285 145° Southeast  Level Estimated
02:48AM 36.4698 116.2935 145° Southeast  Level Estimated
02:49AM 36.3939 116.3584 145° Southeast  Level Estimated
02:50AM 36.3180 116.4232 145° Southeast  Level Estimated
02:51AM 36.2420 116.4878 146° Southeast  Level Estimated
02:52AM 36.1660 116.5524 146° Southeast  Level Estimated
02:53AM 36.0899 116.6168 146° Southeast  Level Estimated
02:54AM 36.0138 116.6810 146° Southeast  Level Estimated
02:55AM 35.9377 116.7452 146° Southeast  Level Estimated
02:56AM 35.8615 116.8092 146° Southeast  Level Estimated
02:57AM 35.7854 116.8731 146° Southeast  Level Estimated
02:58AM 35.7091 116.9369 146° Southeast  Level Estimated
02:59AM 35.6329 117.0005 146° Southeast  Level Estimated
03:00AM 35.5566 117.0640 146° Southeast  Level Estimated
03:01AM 35.4803 117.1274 146° Southeast  Level Estimated
03:02AM 35.4039 117.1907 146° Southeast  Level Estimated
03:03AM 35.3275 117.2539 146° Southeast  Level Estimated
03:04AM 35.2511 117.3169 146° Southeast  Level Estimated
03:05AM 35.1746 117.3799 146° Southeast  Level Estimated
03:06AM 35.0981 117.4427 146° Southeast  Level Estimated
03:07AM 35.0216 117.5054 146° Southeast  Level Estimated
03:08AM 34.9451 117.5680 146° Southeast  Level Estimated
03:09AM 34.8685 117.6304 146° Southeast  Level Estimated
03:10AM 34.7919 117.6928 146° Southeast  Level Estimated
03:11AM 34.7152 117.7550 146° Southeast  Level Estimated
03:12AM 34.6385 117.8171 146° Southeast  Level Estimated
03:13AM 34.5618 117.8791 146° Southeast  Level Estimated
03:14AM 34.4851 117.9410 146° Southeast  Level Estimated
03:15AM 34.4083 118.0028 146° Southeast  Level Estimated
03:16AM 34.3315 118.0644 146° Southeast  Level Estimated
03:17AM 34.2547 118.1260 146° Southeast  Level Estimated
03:18AM 34.1778 118.1874 147° Southeast  Level Estimated
03:19AM 34.1009 118.2487 147° Southeast  Level Estimated
03:20AM 34.0240 118.3099 147° Southeast  Level Estimated
03:21AM 33.9470 118.3710 147° Southeast  Level Estimated
03:22AM 33.8701 118.4320 147° Southeast  Level Estimated
03:23AM 33.7930 118.4929 147° Southeast  Level Estimated
03:24AM 33.7160 118.5537 147° Southeast  Level Estimated
03:25AM 33.6389 118.6143 147° Southeast  Level Estimated
03:26AM 33.5618 118.6749 147° Southeast  Level Estimated
03:27AM 33.4847 118.7353 147° Southeast  Level Estimated
03:28AM 33.4075 118.7957 147° Southeast  Level Estimated
03:29AM 33.3303 118.8559 147° Southeast  Level Estimated
03:30AM 33.2531 118.9160 147° Southeast  Level Estimated
03:31AM 33.1758 118.9760 147° Southeast  Level Estimated
03:32AM 33.0986 119.0359 147° Southeast  Level Estimated
03:33AM 33.0213 119.0957 147° Southeast  Level Estimated
03:34AM 32.9439 119.1554 147° Southeast  Level Estimated
03:35AM 32.8666 119.2150 147° Southeast  Level Estimated
03:36AM 32.7892 119.2745 147° Southeast  Level Estimated
03:37AM 32.7118 119.3339 147° Southeast  Level Estimated
03:38AM 32.6343 119.3932 147° Southeast  Level Estimated
03:39AM 32.5568 119.4524 147° Southeast  Level Estimated
03:40AM 32.4793 119.5115 147° Southeast  Level Estimated
03:41AM 32.4018 119.5704 147° Southeast  Level Estimated
03:42AM 32.3242 119.6293 147° Southeast  Level Estimated
03:43AM 32.2466 119.6881 147° Southeast  Level Estimated
03:44AM 32.1690 119.7468 147° Southeast  Level Estimated
03:45AM 32.0914 119.8053 147° Southeast  Level Estimated
03:46AM 32.0137 119.8638 147° Southeast  Level Estimated
03:47AM 31.9360 119.9222 147° Southeast  Level Estimated
03:48AM 31.8583 119.9805 148° Southeast  Level Estimated
03:49AM 31.7806 120.0387 148° Southeast  Level Estimated
03:50AM 31.7028 120.0967 148° Southeast  Level Estimated
03:51AM 31.6250 120.1547 148° Southeast  Level Estimated
03:52AM 31.5471 120.2126 148° Southeast  Level Estimated
03:53AM 31.4693 120.2704 148° Southeast  Level Estimated
03:54AM 31.3914 120.3281 148° Southeast  Level Estimated
03:55AM 31.3135 120.3857 148° Southeast  Level Estimated
03:56AM 31.2356 120.4432 148° Southeast  Level Estimated
03:57AM 31.1576 120.5006 148° Southeast  Level Estimated
03:58AM 31.0796 120.5579 148° Southeast  Level Estimated
03:59AM 31.0016 120.6152 148° Southeast  Level Estimated
04:00AM 30.9236 120.6723 148° Southeast  Level Estimated
04:01AM 30.8455 120.7293 148° Southeast  Level Estimated
04:02AM 30.7675 120.7863 148° Southeast  Level Estimated
04:03AM 30.6894 120.8431 148° Southeast  Level Estimated
04:04AM 30.6112 120.8999 148° Southeast  Level Estimated
04:05AM 30.5331 120.9565 148° Southeast  Level Estimated
04:06AM 30.4549 121.0131 148° Southeast  Level Estimated
04:07AM 30.3767 121.0696 148° Southeast  Level Estimated
04:08AM 30.2985 121.1260 148° Southeast  Level Estimated
04:09AM 30.2202 121.1823 148° Southeast  Level Estimated
04:10AM 30.1419 121.2385 148° Southeast  Level Estimated
04:11AM 30.0636 121.2946 148° Southeast  Level Estimated
04:12AM 29.9853 121.3507 148° Southeast  Level Estimated
04:13AM 29.9069 121.4066 148° Southeast  Level Estimated
04:14AM 29.8286 121.4625 148° Southeast  Level Estimated
04:15AM 29.8249 121.4651 148° Southeast  Level Estimated
04:16AM 29.8249 121.4651 North  Level Estimated
04:17AM 29.8249 121.4651 North  Level Estimated
04:18AM 29.8249 121.4651 North  Level Estimated
04:19AM 29.8249 121.4651 North  Level Estimated
04:20AM 29.8249 121.4651 North  Level Estimated
04:21AM 29.8249 121.4651 North  Level Estimated
04:22AM 29.8249 121.4651 North  Level Estimated
04:23AM 29.8249 121.4651 North  Level Estimated
04:24AM 29.8249 121.4651 North  Level Estimated
04:25AM 29.8249 121.4651 North  Level Estimated
04:26AM 29.8249 121.4651 North  Level Estimated
04:27AM 29.8249 121.4651 North  Level Estimated
04:28AM 29.8249 121.4651 North  Level Estimated
04:29AM 29.8249 121.4651 North  Level Estimated
04:30AM 29.8249 121.4651 North  Level Estimated

Login

Don't have an account? Register now (free) for customized features, flight alerts, and more!